Airfield :
LOGIN :

Register | Disclaimer

   EN    FR    IT 

 










Legend :    VFR   Marginal VFR   IFR   Intensive IFR   Very Intensive IFR
Visi :
Ceiling :
>= 8 km
>= 3000ft
5 to 8 km
1000 to 3000 ft
1500m to 5 km
500 to 1000 ft
800 to 1500m
200 to 500 ft
< 800m
< 200 ft
Symbols :   Thunderstorms  Fog  Heavy snow  Heavy precipitations  Wind > 20 kt
SIGMETs :     Misc.  Thunderstorms  Icing  Turbulence  Mountain Waves  Volcanic Ashes






- Airport Elevation : 1299 ft


EDTY - Adolf Würth

CURRENT METAR :
  • 151220Z VRB03KT CAVOK 25/17 Q1015

EXPIRED METARs :
  • 151150Z 31004KT 240V340 CAVOK 25/16 Q1015
  • 151120Z 05004KT 010V110 9999 FEW029 25/17 Q1016
  • 151050Z VRB03KT CAVOK 25/18 Q1016
  • 151020Z VRB02KT CAVOK 24/19 Q1016
  • 150950Z 34004KT 300V010 9999 FEW017 23/18 Q1016

TAF TAF EDTY
Valid from the 15 at 12:00 until the 15 at 21:00 UTC


151100Z 1512/1521 35004KT 9999 SCT035



MET'MAP, your aeronautical weather chart ! - Copyright ORBIFLY December 2007 - Disclaimer

ORBIFLY MET'MAP TEAM :

Programming & Development : Alexandra Zaïnal
Concept & original design : Baudouin d'Aumeries
Assistance for programming : Marc-Olivier Méhu
Technical & hardware support : Manuel Goepfert

Contact : metmap@orbifly.com




SOURCES & CREDITS :

   NOAA